createdAt,value
2022-09-02T00:01:14.767Z,25.20
2022-09-02T00:03:42.638Z,25.20
2022-09-02T00:06:10.485Z,25.20
2022-09-02T00:08:38.567Z,25.20
2022-09-02T00:11:06.628Z,25.20
2022-09-02T00:13:34.960Z,25.20
2022-09-02T00:16:04.740Z,25.20
2022-09-02T00:18:32.617Z,25.20
2022-09-02T00:21:00.362Z,25.20
2022-09-02T00:23:28.103Z,25.20
2022-09-02T00:25:55.804Z,25.20
2022-09-02T00:28:24.213Z,25.20
2022-09-02T00:30:51.947Z,25.20
2022-09-02T00:33:21.173Z,25.20
2022-09-02T00:35:49.140Z,25.10
2022-09-02T00:38:16.906Z,25.20
2022-09-02T00:40:45.612Z,25.20
2022-09-02T00:43:13.801Z,25.20
2022-09-02T00:45:41.587Z,25.20
2022-09-02T00:48:09.378Z,25.10
2022-09-02T00:50:38.423Z,25.20
2022-09-02T00:53:11.030Z,25.20
2022-09-02T00:55:41.752Z,25.10
2022-09-02T00:58:11.061Z,25.10
2022-09-02T01:00:42.461Z,25.10
2022-09-02T01:03:11.865Z,25.10
2022-09-02T01:05:44.788Z,25.10
2022-09-02T01:08:12.748Z,25.10
2022-09-02T01:10:40.925Z,25.10
2022-09-02T01:13:09.941Z,25.10
2022-09-02T01:15:39.870Z,25.10
2022-09-02T01:18:08.508Z,25.10
2022-09-02T01:20:36.486Z,25.10
2022-09-02T01:23:05.588Z,25.10
2022-09-02T01:25:34.354Z,25.10
2022-09-02T01:28:02.356Z,25.10
2022-09-02T01:30:30.382Z,25.10
2022-09-02T01:32:58.207Z,25.10
2022-09-02T01:35:26.216Z,25.10
2022-09-02T01:37:56.145Z,25.10
2022-09-02T01:40:25.860Z,25.10
2022-09-02T01:42:55.814Z,25.10
2022-09-02T01:45:24.375Z,25.10
2022-09-02T01:47:52.140Z,25.10
2022-09-02T01:50:20.012Z,25.10
2022-09-02T01:52:47.724Z,25.10
2022-09-02T01:55:15.569Z,25.10
2022-09-02T01:57:44.823Z,25.10
2022-09-02T02:00:15.177Z,25.10
2022-09-02T02:02:43.406Z,25.00
2022-09-02T02:05:14.015Z,25.10
2022-09-02T02:07:42.337Z,25.00
2022-09-02T02:10:11.494Z,25.00
2022-09-02T02:12:39.240Z,25.00
2022-09-02T02:15:11.464Z,25.00
2022-09-02T02:17:40.078Z,25.00
2022-09-02T02:20:11.270Z,25.00
2022-09-02T02:22:39.096Z,25.00
2022-09-02T02:25:08.034Z,25.00
2022-09-02T02:27:35.905Z,25.00
2022-09-02T02:30:09.950Z,25.00
2022-09-02T02:32:38.463Z,25.00
2022-09-02T02:35:07.255Z,25.00
2022-09-02T02:37:36.349Z,25.00
2022-09-02T02:40:04.996Z,24.90
2022-09-02T02:42:32.884Z,24.90
2022-09-02T02:45:00.618Z,24.90
2022-09-02T02:47:29.719Z,25.00
2022-09-02T02:49:57.437Z,24.90
2022-09-02T02:52:25.196Z,24.90
2022-09-02T02:54:53.992Z,24.90
2022-09-02T02:57:21.718Z,24.90
2022-09-02T02:59:49.449Z,24.90
2022-09-02T03:02:18.296Z,24.90
2022-09-02T03:04:47.503Z,24.90
2022-09-02T03:07:28.095Z,24.90
2022-09-02T03:09:56.022Z,24.90
2022-09-02T03:12:24.183Z,24.80
2022-09-02T03:14:52.596Z,24.80
2022-09-02T03:17:21.046Z,24.80
2022-09-02T03:19:50.853Z,24.80
2022-09-02T03:22:18.623Z,24.80
2022-09-02T03:24:46.690Z,24.90
2022-09-02T03:27:14.732Z,24.80
2022-09-02T03:29:42.539Z,24.80
2022-09-02T03:32:11.206Z,24.80
2022-09-02T03:34:43.423Z,24.80
2022-09-02T03:37:14.264Z,24.80
2022-09-02T03:39:44.997Z,24.90
2022-09-02T03:42:19.379Z,24.90
2022-09-02T03:44:54.229Z,24.90
2022-09-02T03:47:24.554Z,24.80
2022-09-02T03:49:54.202Z,24.80
2022-09-02T03:52:23.298Z,24.80
2022-09-02T03:54:51.452Z,24.80
2022-09-02T03:57:20.522Z,24.80
2022-09-02T03:59:49.410Z,24.80
2022-09-02T04:02:18.154Z,24.80
2022-09-02T04:04:45.993Z,24.80
2022-09-02T04:07:13.741Z,24.80
2022-09-02T04:09:46.569Z,24.80
2022-09-02T04:12:14.689Z,24.80
2022-09-02T04:14:43.003Z,24.80
2022-09-02T04:17:11.716Z,24.80
2022-09-02T04:19:40.318Z,24.80
2022-09-02T04:22:08.180Z,24.80
2022-09-02T04:24:37.173Z,24.80
2022-09-02T04:27:09.943Z,24.80
2022-09-02T04:29:38.341Z,24.80
2022-09-02T04:32:16.400Z,24.80
2022-09-02T04:34:44.984Z,24.80
2022-09-02T04:37:14.398Z,24.80
2022-09-02T04:39:42.473Z,24.80
2022-09-02T04:42:12.724Z,24.80
2022-09-02T04:44:41.572Z,24.80
2022-09-02T04:47:09.636Z,24.80
2022-09-02T04:49:37.955Z,24.80
2022-09-02T04:52:05.747Z,24.80
2022-09-02T04:54:34.859Z,24.80
2022-09-02T04:57:03.139Z,24.80
2022-09-02T04:59:32.246Z,24.80
2022-09-02T05:02:05.568Z,24.80
2022-09-02T05:04:33.432Z,24.80
2022-09-02T05:07:02.402Z,24.80
2022-09-02T05:09:32.934Z,24.80
2022-09-02T05:12:04.574Z,24.80
2022-09-02T05:14:51.553Z,24.80
2022-09-02T05:17:21.515Z,24.80
2022-09-02T05:19:50.056Z,24.80
2022-09-02T05:22:19.682Z,24.80
2022-09-02T05:24:47.655Z,24.80
2022-09-02T05:27:16.798Z,24.80
2022-09-02T05:29:46.577Z,24.80
2022-09-02T05:32:18.216Z,24.80
2022-09-02T05:34:48.847Z,24.80
2022-09-02T05:37:17.319Z,24.80
2022-09-02T05:39:45.077Z,24.80
2022-09-02T05:42:12.780Z,24.80
2022-09-02T05:44:44.484Z,24.80
2022-09-02T05:47:14.217Z,24.80
2022-09-02T05:49:44.072Z,24.80
2022-09-02T05:52:14.968Z,24.80
2022-09-02T05:54:49.839Z,24.80
2022-09-02T05:57:21.512Z,24.80
2022-09-02T05:59:57.295Z,24.80
2022-09-02T06:02:41.438Z,24.80
2022-09-02T06:05:12.958Z,24.80
2022-09-02T06:07:46.502Z,24.80
2022-09-02T06:10:14.269Z,24.80
2022-09-02T06:12:43.115Z,24.80
2022-09-02T06:15:12.344Z,24.80
2022-09-02T06:17:41.575Z,24.80
2022-09-02T06:20:12.555Z,24.80
2022-09-02T06:22:42.872Z,24.80
2022-09-02T06:25:10.808Z,24.70
2022-09-02T06:27:39.188Z,24.70
2022-09-02T06:30:08.472Z,24.80
2022-09-02T06:32:36.289Z,24.70
2022-09-02T06:35:10.663Z,24.80
2022-09-02T06:37:41.315Z,24.70
2022-09-02T06:40:12.021Z,24.70
2022-09-02T06:42:40.879Z,24.70
2022-09-02T06:45:16.012Z,24.70
2022-09-02T06:47:45.943Z,24.70
2022-09-02T06:50:15.313Z,24.80
2022-09-02T06:52:44.512Z,24.70
2022-09-02T06:55:14.460Z,24.80
2022-09-02T06:57:42.502Z,24.80
2022-09-02T07:00:14.098Z,24.80
2022-09-02T07:02:43.580Z,24.80
2022-09-02T07:05:10.974Z,24.80
2022-09-02T07:07:41.052Z,24.80
2022-09-02T07:10:14.719Z,24.80
2022-09-02T07:12:46.449Z,24.80
2022-09-02T07:15:17.449Z,24.80
2022-09-02T07:17:45.183Z,24.80
2022-09-02T07:20:23.386Z,24.80
2022-09-02T07:22:56.385Z,24.80
2022-09-02T07:25:27.372Z,24.80
2022-09-02T07:27:56.248Z,24.80
2022-09-02T07:30:24.994Z,24.80
2022-09-02T07:33:02.879Z,24.90
2022-09-02T07:35:31.076Z,24.80
2022-09-02T07:37:59.727Z,24.80
2022-09-02T07:40:30.004Z,24.80
2022-09-02T07:42:58.027Z,24.80
2022-09-02T07:45:26.249Z,24.80
2022-09-02T07:47:54.995Z,24.80
2022-09-02T07:50:25.079Z,24.80
2022-09-02T07:52:58.345Z,24.80
2022-09-02T07:55:31.001Z,24.80
2022-09-02T07:57:58.992Z,24.80
2022-09-02T08:00:27.870Z,24.90
2022-09-02T08:03:00.046Z,24.80
2022-09-02T08:05:32.752Z,24.80
2022-09-02T08:08:01.130Z,24.80
2022-09-02T08:10:30.399Z,24.80
2022-09-02T08:13:00.200Z,24.80
2022-09-02T08:15:28.872Z,24.90
2022-09-02T08:17:56.850Z,24.90
2022-09-02T08:20:24.549Z,24.90
2022-09-02T08:23:01.006Z,24.90
2022-09-02T08:25:41.559Z,24.90
2022-09-02T08:28:09.345Z,24.90
2022-09-02T08:30:37.048Z,24.90
2022-09-02T08:33:04.814Z,24.90
2022-09-02T08:35:32.572Z,24.90
2022-09-02T08:38:02.329Z,24.90
2022-09-02T08:40:34.161Z,24.90
2022-09-02T08:43:03.828Z,24.90
2022-09-02T08:45:34.278Z,24.90
2022-09-02T08:48:05.630Z,24.90
2022-09-02T08:50:33.333Z,24.90
2022-09-02T08:53:04.330Z,24.90
2022-09-02T08:55:36.593Z,24.90
2022-09-02T09:00:37.789Z,25.00
2022-09-02T09:03:09.578Z,25.00
2022-09-02T09:05:41.744Z,25.00
2022-09-02T09:08:14.842Z,25.00
2022-09-02T09:10:47.999Z,25.10
2022-09-02T09:13:42.208Z,25.10
2022-09-02T09:16:14.492Z,25.10
2022-09-02T09:18:44.412Z,25.10
2022-09-02T09:21:12.166Z,25.20
2022-09-02T09:23:40.388Z,25.20
2022-09-02T09:26:09.329Z,25.20
2022-09-02T09:28:44.820Z,25.30
2022-09-02T09:31:14.046Z,25.30
2022-09-02T09:33:42.186Z,25.30
2022-09-02T09:36:09.956Z,25.40
2022-09-02T09:38:41.441Z,25.30
2022-09-02T09:41:12.268Z,25.40
2022-09-02T09:43:40.003Z,25.40
2022-09-02T09:46:22.104Z,25.40
2022-09-02T09:48:51.513Z,25.50
2022-09-02T09:51:19.272Z,25.50
2022-09-02T09:53:47.345Z,25.50
2022-09-02T09:56:27.151Z,25.50
2022-09-02T09:58:54.898Z,25.60
2022-09-02T10:01:25.173Z,25.60
2022-09-02T10:03:54.438Z,25.60
2022-09-02T10:06:23.550Z,25.60
2022-09-02T10:08:52.892Z,25.60
2022-09-02T10:11:25.737Z,25.70
2022-09-02T10:13:55.052Z,25.70
2022-09-02T10:16:42.316Z,25.70
2022-09-02T10:19:14.459Z,25.80
2022-09-02T10:21:53.607Z,25.80
2022-09-02T10:24:31.777Z,25.80
2022-09-02T10:26:59.792Z,25.80
2022-09-02T10:29:48.338Z,25.80
2022-09-02T10:32:29.184Z,25.90
2022-09-02T10:35:03.482Z,25.90
2022-09-02T10:37:35.449Z,25.90
2022-09-02T10:40:10.402Z,25.90
2022-09-02T10:42:44.687Z,26.00
2022-09-02T10:45:17.770Z,26.00
2022-09-02T10:47:49.722Z,26.10
2022-09-02T10:50:21.723Z,26.10
2022-09-02T10:53:00.907Z,26.10
2022-09-02T10:55:37.841Z,26.10
2022-09-02T10:58:07.363Z,26.10
2022-09-02T11:00:36.305Z,26.10
2022-09-02T11:03:08.741Z,26.20
2022-09-02T11:05:42.540Z,26.20
2022-09-02T11:08:11.947Z,26.20
2022-09-02T11:10:41.115Z,26.20
2022-09-02T11:13:10.537Z,26.20
2022-09-02T11:15:45.269Z,26.20
2022-09-02T11:18:19.356Z,26.20
2022-09-02T11:20:50.726Z,26.20
2022-09-02T11:23:21.383Z,26.30
2022-09-02T11:25:53.338Z,26.30
2022-09-02T11:28:26.720Z,26.30
2022-09-02T11:30:56.875Z,26.40
2022-09-02T11:33:28.055Z,26.40
2022-09-02T11:35:55.881Z,26.30
2022-09-02T11:38:34.300Z,26.20
2022-09-02T11:44:05.190Z,26.30
2022-09-02T11:46:39.789Z,26.30
2022-09-02T11:49:53.270Z,26.20
2022-09-02T11:52:25.951Z,26.30
2022-09-02T11:55:02.707Z,26.30
2022-09-02T11:57:30.978Z,26.40
2022-09-02T12:00:29.111Z,26.40
2022-09-02T12:03:11.531Z,26.30
2022-09-02T12:05:49.818Z,26.30
2022-09-02T12:09:00.610Z,26.30
2022-09-02T12:11:38.768Z,26.30
2022-09-02T12:14:08.112Z,26.20
2022-09-02T12:16:37.857Z,26.20
2022-09-02T12:19:19.303Z,26.20
2022-09-02T12:22:23.409Z,26.10
2022-09-02T12:24:53.914Z,26.20
2022-09-02T12:27:26.220Z,26.20
2022-09-02T12:29:55.566Z,26.10
2022-09-02T12:32:59.644Z,26.10
2022-09-02T12:35:37.168Z,26.20
2022-09-02T12:38:22.905Z,26.20
2022-09-02T12:40:55.758Z,26.10
2022-09-02T12:43:26.684Z,26.10
2022-09-02T12:45:55.106Z,26.10
2022-09-02T12:48:36.396Z,26.20
2022-09-02T12:51:06.421Z,26.10
2022-09-02T12:53:36.720Z,26.20
2022-09-02T12:56:09.455Z,26.20
2022-09-02T12:58:41.286Z,26.20
2022-09-02T13:01:14.581Z,26.30
2022-09-02T13:03:53.100Z,26.30
2022-09-02T13:06:25.602Z,26.30
2022-09-02T13:09:28.029Z,26.30
2022-09-02T13:12:23.626Z,26.30
2022-09-02T13:14:55.548Z,26.30
2022-09-02T13:17:36.994Z,26.30
2022-09-02T13:20:38.496Z,26.30
2022-09-02T13:23:20.245Z,26.40
2022-09-02T13:26:27.400Z,26.40
2022-09-02T13:29:37.135Z,26.40
2022-09-02T13:32:13.325Z,26.40
2022-09-02T13:34:42.359Z,26.50
2022-09-02T13:37:28.616Z,26.50
2022-09-02T13:39:56.509Z,26.60
2022-09-02T13:42:25.274Z,26.60
2022-09-02T13:45:10.948Z,26.60
2022-09-02T13:47:38.788Z,26.50
2022-09-02T13:50:07.663Z,26.50
2022-09-02T13:53:34.609Z,26.50
2022-09-02T13:55:23.508Z,26.50
2022-09-02T13:57:55.699Z,26.50
2022-09-02T14:00:32.046Z,26.60
2022-09-02T14:03:02.013Z,26.50
2022-09-02T14:05:29.885Z,26.60
2022-09-02T14:07:59.676Z,26.60
2022-09-02T14:10:28.233Z,26.60
2022-09-02T14:12:56.406Z,26.60
2022-09-02T14:15:30.025Z,26.70
2022-09-02T14:18:18.451Z,26.70
2022-09-02T14:20:57.620Z,26.70
2022-09-02T14:23:25.370Z,26.70
2022-09-02T14:25:54.497Z,26.60
2022-09-02T14:28:23.994Z,26.60
2022-09-02T14:31:01.249Z,26.60
2022-09-02T14:33:41.157Z,26.60
2022-09-02T14:36:10.046Z,26.60
2022-09-02T14:38:38.897Z,26.60
2022-09-02T14:41:11.709Z,26.60
2022-09-02T14:43:47.295Z,26.60
2022-09-02T14:46:27.793Z,26.70
2022-09-02T14:49:01.042Z,26.70
2022-09-02T14:51:32.796Z,26.70
2022-09-02T14:54:00.624Z,26.60
2022-09-02T14:56:48.570Z,26.60
2022-09-02T14:59:16.316Z,26.60
2022-09-02T15:01:47.521Z,26.60
2022-09-02T15:04:15.556Z,26.60
2022-09-02T15:06:43.543Z,26.50
2022-09-02T15:09:11.530Z,26.50
2022-09-02T15:11:39.575Z,26.50
2022-09-02T15:14:07.295Z,26.50
2022-09-02T15:16:35.496Z,26.50
2022-09-02T15:19:05.069Z,26.50
2022-09-02T15:21:32.904Z,26.50
2022-09-02T15:24:00.622Z,26.60
2022-09-02T15:26:28.318Z,26.50
2022-09-02T15:28:56.053Z,26.50
2022-09-02T15:31:23.963Z,26.50
2022-09-02T15:33:52.572Z,26.60
2022-09-02T15:36:26.249Z,26.50
2022-09-02T15:38:54.137Z,26.60
2022-09-02T15:41:24.205Z,26.60
2022-09-02T15:43:55.527Z,26.60
2022-09-02T15:46:25.932Z,26.60
2022-09-02T15:48:53.898Z,26.60
2022-09-02T15:51:24.399Z,26.60
2022-09-02T15:53:55.968Z,26.60
2022-09-02T15:56:24.812Z,26.60
2022-09-02T15:58:58.334Z,26.60
2022-09-02T16:01:26.994Z,26.70
2022-09-02T16:03:55.302Z,26.60
2022-09-02T16:06:24.467Z,26.60
2022-09-02T16:08:52.404Z,26.60
2022-09-02T16:11:20.599Z,26.60
2022-09-02T16:13:48.378Z,26.60
2022-09-02T16:16:16.426Z,26.40
2022-09-02T16:18:44.382Z,26.50
2022-09-02T16:21:13.052Z,26.40
2022-09-02T16:23:42.453Z,26.40
2022-09-02T16:26:12.179Z,26.50
2022-09-02T16:28:40.589Z,26.40
2022-09-02T16:31:09.187Z,26.40
2022-09-02T16:33:36.956Z,26.40
2022-09-02T16:36:05.103Z,26.30
2022-09-02T16:38:34.506Z,26.40
2022-09-02T16:41:03.887Z,26.40
2022-09-02T16:43:32.140Z,26.30
2022-09-02T16:46:02.819Z,26.30
2022-09-02T16:48:32.723Z,26.30
2022-09-02T16:51:03.177Z,26.30
2022-09-02T16:53:31.293Z,26.30
2022-09-02T16:55:58.988Z,26.30
2022-09-02T16:58:29.509Z,26.30
2022-09-02T17:00:57.498Z,26.30
2022-09-02T17:03:25.302Z,26.40
2022-09-02T17:05:52.995Z,26.30
2022-09-02T17:08:20.721Z,26.30
2022-09-02T17:10:48.411Z,26.30
2022-09-02T17:13:16.165Z,26.30
2022-09-02T17:15:45.873Z,26.30
2022-09-02T17:18:13.583Z,26.30
2022-09-02T17:20:41.279Z,26.30
2022-09-02T17:23:09.011Z,26.30
2022-09-02T17:25:36.757Z,26.20
2022-09-02T17:28:04.451Z,26.20
2022-09-02T17:30:32.274Z,26.20
2022-09-02T17:33:01.615Z,26.20
2022-09-02T17:35:29.378Z,26.20
2022-09-02T17:37:57.794Z,26.10
2022-09-02T17:40:43.401Z,26.10
2022-09-02T17:43:11.523Z,26.10
2022-09-02T17:45:39.301Z,26.10
2022-09-02T17:48:34.356Z,26.10
2022-09-02T17:50:56.347Z,26.10
2022-09-02T17:53:26.601Z,26.10
2022-09-02T17:55:56.583Z,26.10
2022-09-02T17:58:25.298Z,26.10
2022-09-02T18:00:53.226Z,26.10
2022-09-02T18:03:31.956Z,26.00
2022-09-02T18:06:06.094Z,26.00
2022-09-02T18:08:36.630Z,26.00
2022-09-02T18:11:06.533Z,26.00
2022-09-02T18:13:40.030Z,26.00
2022-09-02T18:16:20.852Z,26.00
2022-09-02T18:18:56.237Z,25.90
2022-09-02T18:21:26.558Z,25.90
2022-09-02T18:23:57.424Z,25.90
2022-09-02T18:26:30.199Z,25.90
2022-09-02T18:29:03.338Z,25.90
2022-09-02T18:31:36.215Z,25.90
2022-09-02T18:34:13.910Z,25.90
2022-09-02T18:36:44.829Z,25.90
2022-09-02T18:39:26.713Z,25.90
2022-09-02T18:42:03.154Z,25.90
2022-09-02T18:44:36.326Z,25.90
2022-09-02T18:47:06.758Z,25.90
2022-09-02T18:49:35.968Z,25.90
2022-09-02T18:52:06.332Z,25.80
2022-09-02T18:54:38.404Z,25.90
2022-09-02T18:57:08.000Z,25.90
2022-09-02T18:59:40.682Z,25.90
2022-09-02T19:02:16.935Z,25.90
2022-09-02T19:04:46.034Z,25.80
2022-09-02T19:07:31.326Z,25.80
2022-09-02T19:10:00.948Z,25.80
2022-09-02T19:12:31.853Z,25.80
2022-09-02T19:14:59.822Z,25.80
2022-09-02T19:17:27.636Z,25.80
2022-09-02T19:19:57.197Z,25.80
2022-09-02T19:22:26.995Z,25.80
2022-09-02T19:24:58.462Z,25.80
2022-09-02T19:27:29.101Z,25.80
2022-09-02T19:30:01.478Z,25.70
2022-09-02T19:32:30.721Z,25.70
2022-09-02T19:35:00.438Z,25.70
2022-09-02T19:37:29.196Z,25.80
2022-09-02T19:40:01.807Z,25.70
2022-09-02T19:42:31.921Z,25.70
2022-09-02T19:45:00.037Z,25.70
2022-09-02T19:50:16.997Z,25.70
2022-09-02T19:52:45.607Z,25.70
2022-09-02T19:55:14.708Z,25.70
2022-09-02T19:57:42.814Z,25.70
2022-09-02T20:00:11.335Z,25.70
2022-09-02T20:02:40.197Z,25.70
2022-09-02T20:05:08.235Z,25.70
2022-09-02T20:07:37.354Z,25.70
2022-09-02T20:10:05.461Z,25.70
2022-09-02T20:12:33.640Z,25.70
2022-09-02T20:15:02.760Z,25.70
2022-09-02T20:17:30.837Z,25.70
2022-09-02T20:20:01.034Z,25.70
2022-09-02T20:22:29.065Z,25.70
2022-09-02T20:24:58.421Z,25.80
2022-09-02T20:27:39.895Z,25.80
2022-09-02T20:30:08.987Z,25.80
2022-09-02T20:32:43.171Z,25.80
2022-09-02T20:35:17.893Z,25.80
2022-09-02T20:37:51.733Z,25.80
2022-09-02T20:40:45.828Z,25.80
2022-09-02T20:43:36.148Z,25.80
2022-09-02T20:46:08.850Z,25.80
2022-09-02T20:48:45.635Z,25.80
2022-09-02T20:51:16.714Z,25.80
2022-09-02T20:53:58.872Z,25.90
2022-09-02T20:56:33.641Z,25.90
2022-09-02T20:59:02.660Z,25.90
2022-09-02T21:01:31.704Z,25.90
2022-09-02T21:04:04.534Z,25.90
2022-09-02T21:06:34.712Z,25.90
2022-09-02T21:09:05.836Z,25.90
2022-09-02T21:11:38.843Z,25.90
2022-09-02T21:14:08.248Z,25.90
2022-09-02T21:16:37.493Z,26.00
2022-09-02T21:19:08.895Z,26.00
2022-09-02T21:21:39.163Z,26.00
2022-09-02T21:24:08.331Z,26.00
2022-09-02T21:26:40.167Z,26.00
2022-09-02T21:29:12.455Z,26.00
2022-09-02T21:31:42.190Z,26.10
2022-09-02T21:34:16.479Z,26.10
2022-09-02T21:36:44.231Z,26.10
2022-09-02T21:39:14.978Z,26.10
2022-09-02T21:41:44.974Z,26.10
2022-09-02T21:44:15.394Z,26.10
2022-09-02T21:46:50.180Z,26.20
2022-09-02T21:49:25.291Z,26.20
2022-09-02T21:51:54.814Z,26.20
2022-09-02T21:54:39.797Z,26.20
2022-09-02T21:57:19.894Z,26.20
2022-09-02T21:59:57.740Z,26.30
2022-09-02T22:02:34.223Z,26.30
2022-09-02T22:05:04.344Z,26.30
2022-09-02T22:07:34.498Z,26.30
2022-09-02T22:10:11.073Z,26.30
2022-09-02T22:12:41.068Z,26.40
2022-09-02T22:15:11.995Z,26.40
2022-09-02T22:17:45.700Z,26.40
2022-09-02T22:20:15.596Z,26.40
2022-09-02T22:22:47.064Z,26.40
2022-09-02T22:25:17.727Z,26.40
2022-09-02T22:27:50.924Z,26.40
2022-09-02T22:30:18.894Z,26.50
2022-09-02T22:32:48.454Z,26.50
2022-09-02T22:35:21.982Z,26.50
2022-09-02T22:37:54.353Z,26.50
2022-09-02T22:40:23.281Z,26.50
2022-09-02T22:42:53.614Z,26.50
2022-09-02T22:45:41.017Z,26.50
2022-09-02T22:48:28.952Z,26.60
2022-09-02T22:51:19.173Z,26.60
2022-09-02T22:53:47.974Z,26.60
2022-09-02T22:56:16.005Z,26.60
2022-09-02T22:59:09.119Z,26.70
2022-09-02T23:01:43.931Z,26.70
2022-09-02T23:04:17.902Z,26.70
2022-09-02T23:06:45.688Z,26.70
2022-09-02T23:09:14.754Z,26.70
2022-09-02T23:11:47.449Z,26.80
2022-09-02T23:14:26.562Z,26.80
2022-09-02T23:17:20.394Z,26.80
2022-09-02T23:19:56.562Z,26.80
2022-09-02T23:22:34.338Z,26.90
2022-09-02T23:25:15.463Z,26.90
2022-09-02T23:27:45.164Z,26.90
2022-09-02T23:30:15.255Z,27.00
2022-09-02T23:32:55.295Z,27.00
2022-09-02T23:35:24.055Z,27.00
2022-09-02T23:38:02.742Z,27.00
2022-09-02T23:40:32.999Z,27.00
2022-09-02T23:43:01.378Z,27.10
2022-09-02T23:45:31.989Z,27.10
2022-09-02T23:48:18.267Z,27.10
2022-09-02T23:50:51.705Z,27.10
2022-09-02T23:53:22.171Z,27.20
2022-09-02T23:55:53.084Z,27.20
2022-09-02T23:58:28.489Z,27.20
